Time,TemperatureF,DewpointF,PressureIn,WindDirection,WindDirectionDegrees,WindSpeedMPH,WindSpeedGustMPH,Humidity,HourlyPrecipIn,Conditions,Clouds,dailyrainin,SolarRadiationWatts/m^2,SoftwareType,DateUTC
2013-09-04 00:02:00,65.8,64.0,29.99,NW,317,0.0,0.0,94,0.00,,,0.00,0.0,meteohub,2013-09-04 05:02:00,
2013-09-04 00:07:00,65.7,63.9,30.00,NW,317,0.0,0.0,94,0.00,,,0.00,0.0,meteohub,2013-09-04 05:07:00,
2013-09-04 00:12:00,65.3,63.5,29.99,NW,317,0.0,0.0,94,0.00,,,0.00,0.0,meteohub,2013-09-04 05:12:00,
2013-09-04 00:17:00,65.1,63.7,30.00,NW,317,0.0,0.0,95,0.00,,,0.00,0.0,meteohub,2013-09-04 05:17:00,
2013-09-04 00:22:00,65.1,63.7,30.00,NW,318,0.0,1.0,95,0.00,,,0.00,0.0,meteohub,2013-09-04 05:22:00,
2013-09-04 00:27:00,65.1,63.7,30.00,NW,317,0.0,1.0,95,0.00,,,0.00,0.0,meteohub,2013-09-04 05:27:00,
2013-09-04 00:32:00,65.1,63.7,30.00,NW,317,0.0,1.0,95,0.00,,,0.00,0.0,meteohub,2013-09-04 05:32:00,
2013-09-04 00:37:00,65.1,63.7,30.00,NW,318,0.0,0.0,95,0.00,,,0.00,0.0,meteohub,2013-09-04 05:37:00,
2013-09-04 00:42:00,65.1,63.7,30.00,NW,318,0.0,0.0,95,0.00,,,0.00,0.0,meteohub,2013-09-04 05:42:00,
2013-09-04 00:47:00,64.9,63.5,30.00,NW,317,0.0,0.0,95,0.00,,,0.00,0.0,meteohub,2013-09-04 05:47:00,
2013-09-04 00:52:00,64.8,63.3,30.00,NW,318,0.0,0.0,95,0.00,,,0.00,0.0,meteohub,2013-09-04 05:52:00,
2013-09-04 00:57:00,64.8,63.3,30.00,NW,317,0.0,0.0,95,0.00,,,0.00,0.0,meteohub,2013-09-04 05:57:00,
2013-09-04 01:02:00,64.8,63.7,30.00,NW,317,0.0,0.0,96,0.00,,,0.00,0.0,meteohub,2013-09-04 06:02:00,
2013-09-04 01:07:00,64.8,63.7,30.00,NW,317,0.0,0.0,96,0.00,,,0.00,0.0,meteohub,2013-09-04 06:07:00,
2013-09-04 01:12:00,64.8,63.7,30.00,NW,317,0.0,0.0,96,0.00,,,0.00,0.0,meteohub,2013-09-04 06:12:00,
2013-09-04 01:17:00,64.9,63.9,30.00,NW,317,0.0,0.0,96,0.00,,,0.00,0.0,meteohub,2013-09-04 06:17:00,
2013-09-04 01:22:00,64.8,63.7,30.00,NW,317,0.0,0.0,96,0.00,,,0.00,0.0,meteohub,2013-09-04 06:22:00,
2013-09-04 01:27:00,64.8,63.7,30.00,NW,318,0.0,0.0,96,0.00,,,0.00,0.0,meteohub,2013-09-04 06:27:00,
2013-09-04 01:32:00,64.8,63.7,30.00,NW,318,0.0,0.0,96,0.00,,,0.00,0.0,meteohub,2013-09-04 06:32:00,
2013-09-04 01:38:00,64.8,63.7,30.00,NW,318,0.0,0.0,96,0.00,,,0.00,0.0,meteohub,2013-09-04 06:38:00,
2013-09-04 01:43:00,64.8,63.7,30.00,NW,318,0.0,0.0,96,0.00,,,0.00,0.0,meteohub,2013-09-04 06:43:00,
2013-09-04 01:48:00,64.6,63.5,30.00,NW,317,0.0,0.0,96,0.00,,,0.00,0.0,meteohub,2013-09-04 06:48:00,
2013-09-04 01:53:00,64.0,63.0,30.01,NW,318,0.0,0.0,96,0.00,,,0.00,0.0,meteohub,2013-09-04 06:53:00,
2013-09-04 01:58:00,64.0,63.0,30.01,NW,318,0.0,0.0,96,0.00,,,0.00,0.0,meteohub,2013-09-04 06:58:00,
2013-09-04 02:03:00,63.9,62.8,30.01,NW,317,0.0,0.0,96,0.00,,,0.00,0.0,meteohub,2013-09-04 07:03:00,
2013-09-04 02:08:00,63.9,62.8,30.01,NW,317,0.0,0.0,96,0.00,,,0.00,0.0,meteohub,2013-09-04 07:08:00,
2013-09-04 02:13:00,63.9,62.8,30.01,NW,317,0.0,0.0,96,0.00,,,0.00,0.0,meteohub,2013-09-04 07:13:00,
2013-09-04 02:18:00,63.7,62.6,30.01,NW,317,0.0,0.0,96,0.00,,,0.00,0.0,meteohub,2013-09-04 07:18:00,
2013-09-04 02:23:00,63.5,62.4,30.01,NW,318,0.0,0.0,96,0.00,,,0.00,0.0,meteohub,2013-09-04 07:23:00,
2013-09-04 02:28:00,63.3,62.4,30.01,NW,317,0.0,0.0,97,0.00,,,0.00,0.0,meteohub,2013-09-04 07:28:00,
2013-09-04 02:33:00,63.3,62.4,30.01,NW,318,0.0,0.0,97,0.00,,,0.00,0.0,meteohub,2013-09-04 07:33:00,
2013-09-04 02:38:00,63.1,62.2,30.01,NW,317,0.0,0.0,97,0.00,,,0.00,0.0,meteohub,2013-09-04 07:38:00,
2013-09-04 02:43:00,63.1,62.2,30.01,NW,317,0.0,0.0,97,0.00,,,0.00,0.0,meteohub,2013-09-04 07:43:00,
2013-09-04 02:48:00,63.0,62.1,30.01,NW,317,0.0,0.0,97,0.00,,,0.00,0.0,meteohub,2013-09-04 07:48:00,
2013-09-04 02:53:00,62.8,61.9,30.01,NW,318,0.0,0.0,97,0.00,,,0.00,0.0,meteohub,2013-09-04 07:53:00,
2013-09-04 02:58:00,62.8,61.9,30.01,NW,318,0.0,0.0,97,0.00,,,0.00,0.0,meteohub,2013-09-04 07:58:00,
2013-09-04 03:03:00,62.8,61.9,30.01,NW,317,0.0,0.0,97,0.00,,,0.00,0.0,meteohub,2013-09-04 08:03:00,
2013-09-04 03:08:00,62.8,61.9,30.01,NW,318,0.0,0.0,97,0.00,,,0.00,0.0,meteohub,2013-09-04 08:08:00,
2013-09-04 03:13:00,62.6,61.7,30.01,NW,318,0.0,0.0,97,0.00,,,0.00,0.0,meteohub,2013-09-04 08:13:00,
2013-09-04 03:18:00,62.6,61.7,30.01,NW,317,0.0,0.0,97,0.00,,,0.00,0.0,meteohub,2013-09-04 08:18:00,
2013-09-04 03:23:00,62.4,61.5,30.01,NW,317,0.0,0.0,97,0.00,,,0.00,0.0,meteohub,2013-09-04 08:23:00,
2013-09-04 03:28:00,62.2,61.3,30.01,NW,317,0.0,0.0,97,0.00,,,0.00,0.0,meteohub,2013-09-04 08:28:00,
2013-09-04 03:33:00,62.2,61.3,30.02,NW,318,0.0,0.0,97,0.00,,,0.00,0.0,meteohub,2013-09-04 08:33:00,
2013-09-04 03:38:00,62.2,61.3,30.02,NW,318,0.0,0.0,97,0.00,,,0.00,0.0,meteohub,2013-09-04 08:38:00,
2013-09-04 03:43:00,62.2,61.3,30.02,NW,317,0.0,0.0,97,0.00,,,0.00,0.0,meteohub,2013-09-04 08:43:00,
2013-09-04 03:48:00,62.1,61.2,30.02,NW,318,0.0,0.0,97,0.00,,,0.00,0.0,meteohub,2013-09-04 08:48:00,
2013-09-04 03:53:00,62.1,61.2,30.02,NW,317,0.0,0.0,97,0.00,,,0.00,0.0,meteohub,2013-09-04 08:53:00,
2013-09-04 03:58:00,62.1,61.2,30.02,NW,317,0.0,0.0,97,0.00,,,0.00,0.0,meteohub,2013-09-04 08:58:00,
2013-09-04 04:03:00,62.1,61.2,30.02,NW,318,0.0,0.0,97,0.00,,,0.00,0.0,meteohub,2013-09-04 09:03:00,
2013-09-04 04:08:00,61.9,61.0,30.02,NW,317,0.0,0.0,97,0.00,,,0.00,0.0,meteohub,2013-09-04 09:08:00,
2013-09-04 04:13:00,61.9,61.0,30.02,NW,318,0.0,0.0,97,0.00,,,0.00,0.0,meteohub,2013-09-04 09:13:00,
2013-09-04 04:18:00,61.9,61.0,30.03,NW,317,0.0,0.0,97,0.00,,,0.00,0.0,meteohub,2013-09-04 09:18:00,
2013-09-04 04:23:00,61.9,61.0,30.02,NW,317,0.0,0.0,97,0.00,,,0.00,0.0,meteohub,2013-09-04 09:23:00,
2013-09-04 04:28:00,61.9,61.3,30.02,NW,318,0.0,0.0,98,0.00,,,0.00,0.0,meteohub,2013-09-04 09:28:00,
2013-09-04 04:33:00,61.9,61.3,30.02,NW,318,0.0,0.0,98,0.00,,,0.00,0.0,meteohub,2013-09-04 09:33:00,
2013-09-04 04:38:00,62.1,61.5,30.02,NW,317,0.0,0.0,98,0.00,,,0.00,0.0,meteohub,2013-09-04 09:38:00,
2013-09-04 04:43:00,62.1,61.5,30.02,NW,317,0.0,0.0,98,0.00,,,0.00,0.0,meteohub,2013-09-04 09:43:00,
2013-09-04 04:49:00,61.5,60.6,30.02,NW,317,0.0,0.0,97,0.00,,,0.00,0.0,meteohub,2013-09-04 09:49:00,
2013-09-04 04:54:00,61.0,60.1,30.03,NW,317,0.0,0.0,97,0.00,,,0.00,0.0,meteohub,2013-09-04 09:54:00,
2013-09-04 04:59:00,60.8,59.9,30.03,NW,317,0.0,0.0,97,0.00,,,0.00,0.0,meteohub,2013-09-04 09:59:00,
2013-09-04 05:04:00,60.8,60.3,30.03,NW,317,0.0,0.0,98,0.00,,,0.00,0.0,meteohub,2013-09-04 10:04:00,
2013-09-04 05:09:00,60.6,59.7,30.03,NW,318,0.0,0.0,97,0.00,,,0.00,0.0,meteohub,2013-09-04 10:09:00,
2013-09-04 05:14:00,61.0,60.4,30.03,NW,318,0.0,0.0,98,0.00,,,0.00,0.0,meteohub,2013-09-04 10:14:00,
2013-09-04 05:19:00,60.6,59.7,30.03,NW,317,0.0,0.0,97,0.00,,,0.00,0.0,meteohub,2013-09-04 10:19:00,
2013-09-04 05:24:00,60.4,59.5,30.03,NW,318,0.0,0.0,97,0.00,,,0.00,0.0,meteohub,2013-09-04 10:24:00,
2013-09-04 05:29:00,60.4,59.9,30.04,NW,318,0.0,0.0,98,0.00,,,0.00,0.0,meteohub,2013-09-04 10:29:00,
2013-09-04 05:34:00,60.4,59.9,30.04,NW,317,0.0,0.0,98,0.00,,,0.00,0.0,meteohub,2013-09-04 10:34:00,
2013-09-04 05:39:00,60.6,60.1,30.04,NW,318,0.0,0.0,98,0.00,,,0.00,0.0,meteohub,2013-09-04 10:39:00,
2013-09-04 05:44:00,60.6,60.1,30.04,NW,318,0.0,0.0,98,0.00,,,0.00,0.0,meteohub,2013-09-04 10:44:00,
2013-09-04 05:49:00,60.6,60.1,30.04,NW,317,0.0,0.0,98,0.00,,,0.00,0.0,meteohub,2013-09-04 10:49:00,
2013-09-04 05:54:00,60.6,60.1,30.04,NW,317,0.0,0.0,98,0.00,,,0.00,0.0,meteohub,2013-09-04 10:54:00,
2013-09-04 05:59:00,60.6,60.1,30.04,NW,317,0.0,0.0,98,0.00,,,0.00,0.0,meteohub,2013-09-04 10:59:00,
2013-09-04 06:04:00,60.6,60.1,30.04,NW,317,0.0,0.0,98,0.00,,,0.00,0.0,meteohub,2013-09-04 11:04:00,
2013-09-04 06:09:00,60.4,59.9,30.04,NW,317,0.0,0.0,98,0.00,,,0.00,0.0,meteohub,2013-09-04 11:09:00,
2013-09-04 06:14:00,60.8,60.3,30.04,NW,317,0.0,0.0,98,0.00,,,0.00,0.0,meteohub,2013-09-04 11:14:00,
2013-09-04 06:19:00,60.4,59.9,30.04,NW,317,0.0,0.0,98,0.00,,,0.00,0.0,meteohub,2013-09-04 11:19:00,
2013-09-04 06:24:00,60.3,59.7,30.05,NW,318,0.0,0.0,98,0.00,,,0.00,0.0,meteohub,2013-09-04 11:24:00,
2013-09-04 06:29:00,60.1,59.2,30.05,NW,317,0.0,0.0,97,0.00,,,0.00,0.0,meteohub,2013-09-04 11:29:00,
2013-09-04 06:34:00,60.1,59.5,30.05,NW,318,0.0,0.0,98,0.00,,,0.00,0.0,meteohub,2013-09-04 11:34:00,
2013-09-04 06:39:00,60.1,59.5,30.05,NW,318,0.0,0.0,98,0.00,,,0.00,0.0,meteohub,2013-09-04 11:39:00,
2013-09-04 06:44:00,60.1,59.5,30.05,NW,317,0.0,0.0,98,0.00,,,0.00,0.0,meteohub,2013-09-04 11:44:00,
2013-09-04 06:49:00,60.1,59.5,30.05,NW,318,0.0,0.0,98,0.00,,,0.00,0.0,meteohub,2013-09-04 11:49:00,
2013-09-04 06:54:00,60.1,59.5,30.06,NW,318,0.0,0.0,98,0.00,,,0.00,5.0,meteohub,2013-09-04 11:54:00,
2013-09-04 06:59:00,60.1,59.5,30.06,NW,317,0.0,0.0,98,0.00,,,0.00,7.0,meteohub,2013-09-04 11:59:00,
2013-09-04 07:04:00,60.1,59.5,30.06,NW,318,0.0,0.0,98,0.00,,,0.00,9.0,meteohub,2013-09-04 12:04:00,
2013-09-04 07:09:00,60.1,59.5,30.06,NW,318,0.0,0.0,98,0.00,,,0.00,12.0,meteohub,2013-09-04 12:09:00,
2013-09-04 07:14:00,59.9,59.4,30.06,NW,317,0.0,0.0,98,0.00,,,0.00,14.0,meteohub,2013-09-04 12:14:00,
2013-09-04 07:19:00,59.9,59.4,30.06,NW,317,0.0,0.0,98,0.00,,,0.00,19.0,meteohub,2013-09-04 12:19:00,
2013-09-04 07:24:00,60.1,59.5,30.07,NW,317,0.0,1.0,98,0.00,,,0.00,23.0,meteohub,2013-09-04 12:24:00,
2013-09-04 07:30:00,60.1,59.5,30.06,NW,317,0.0,1.0,98,0.00,,,0.00,23.0,meteohub,2013-09-04 12:30:00,
2013-09-04 07:35:00,60.3,59.7,30.07,NW,317,0.0,1.0,98,0.00,,,0.00,25.0,meteohub,2013-09-04 12:35:00,
2013-09-04 07:40:00,60.3,59.7,30.07,NW,317,0.0,1.0,98,0.00,,,0.00,25.0,meteohub,2013-09-04 12:40:00,
2013-09-04 07:45:00,60.4,59.9,30.07,NW,317,0.0,1.0,98,0.00,,,0.00,28.0,meteohub,2013-09-04 12:45:00,
2013-09-04 07:50:00,60.3,59.7,30.07,NW,317,0.0,0.0,98,0.00,,,0.00,30.0,meteohub,2013-09-04 12:50:00,
2013-09-04 07:55:00,60.3,59.7,30.08,NW,318,0.0,0.0,98,0.00,,,0.00,35.0,meteohub,2013-09-04 12:55:00,
2013-09-04 08:00:00,60.4,59.9,30.08,NW,318,0.0,0.0,98,0.00,,,0.00,46.0,meteohub,2013-09-04 13:00:00,
2013-09-04 08:05:00,60.4,59.9,30.08,NW,317,0.0,0.0,98,0.00,,,0.00,51.0,meteohub,2013-09-04 13:05:00,
2013-09-04 08:10:00,60.8,60.3,30.09,North,11,0.0,1.0,98,0.00,,,0.00,69.0,meteohub,2013-09-04 13:10:00,
2013-09-04 08:15:00,61.0,60.4,30.09,North,11,0.0,1.0,98,0.00,,,0.00,65.0,meteohub,2013-09-04 13:15:00,
2013-09-04 08:20:00,61.3,60.8,30.09,North,11,0.0,1.0,98,0.00,,,0.00,47.0,meteohub,2013-09-04 13:20:00,
2013-09-04 08:25:00,61.3,60.8,30.08,North,11,0.0,1.0,98,0.00,,,0.00,47.0,meteohub,2013-09-04 13:25:00,
2013-09-04 08:30:00,61.7,61.2,30.08,North,10,0.0,1.0,98,0.00,,,0.00,51.0,meteohub,2013-09-04 13:30:00,
2013-09-04 08:35:00,61.9,61.3,30.08,North,10,0.0,1.0,98,0.00,,,0.00,53.0,meteohub,2013-09-04 13:35:00,
2013-09-04 08:40:00,62.1,61.5,30.08,North,10,0.0,1.0,98,0.00,,,0.00,56.0,meteohub,2013-09-04 13:40:00,
2013-09-04 08:45:00,62.4,61.9,30.08,North,10,0.0,0.0,98,0.00,,,0.00,58.0,meteohub,2013-09-04 13:45:00,
2013-09-04 08:50:00,62.8,62.2,30.08,North,10,0.0,0.0,98,0.00,,,0.00,62.0,meteohub,2013-09-04 13:50:00,
2013-09-04 08:55:00,63.3,62.8,30.08,North,10,0.0,0.0,98,0.00,,,0.00,65.0,meteohub,2013-09-04 13:55:00,
2013-09-04 09:00:00,63.7,63.1,30.08,North,10,0.0,1.0,98,0.00,,,0.00,69.0,meteohub,2013-09-04 14:00:00,
2013-09-04 09:05:00,64.2,63.7,30.08,North,10,0.0,1.0,98,0.00,,,0.00,72.0,meteohub,2013-09-04 14:05:00,
2013-09-04 09:10:00,64.8,64.2,30.08,NNE,23,0.0,1.0,98,0.00,,,0.00,72.0,meteohub,2013-09-04 14:10:00,
2013-09-04 09:15:00,65.3,64.8,30.08,NNE,22,0.0,2.0,98,0.00,,,0.00,74.0,meteohub,2013-09-04 14:15:00,
2013-09-04 09:20:00,65.8,65.3,30.08,NNE,22,0.0,2.0,98,0.00,,,0.00,77.0,meteohub,2013-09-04 14:20:00,
2013-09-04 09:25:00,66.6,66.0,30.08,NNE,22,0.0,2.0,98,0.00,,,0.00,79.0,meteohub,2013-09-04 14:25:00,
2013-09-04 09:30:00,66.7,65.8,30.08,NNE,22,0.0,1.0,97,0.00,,,0.00,79.0,meteohub,2013-09-04 14:30:00,
2013-09-04 09:35:00,67.3,66.0,30.08,NNE,22,0.0,2.0,96,0.00,,,0.00,88.0,meteohub,2013-09-04 14:35:00,
2013-09-04 09:40:00,67.6,66.2,30.08,NNE,22,0.0,2.0,95,0.00,,,0.00,91.0,meteohub,2013-09-04 14:40:00,
2013-09-04 09:45:00,67.6,66.2,30.08,NNE,22,0.0,2.0,95,0.00,,,0.00,91.0,meteohub,2013-09-04 14:45:00,
2013-09-04 09:50:00,68.4,67.1,30.09,NNE,22,0.0,1.0,96,0.00,,,0.00,91.0,meteohub,2013-09-04 14:50:00,
2013-09-04 09:55:00,68.9,67.1,30.09,NNE,22,0.0,1.0,94,0.00,,,0.00,95.0,meteohub,2013-09-04 14:55:00,
2013-09-04 10:00:00,69.3,67.5,30.09,WNW,288,0.0,2.0,94,0.00,,,0.00,214.0,meteohub,2013-09-04 15:00:00,
2013-09-04 10:05:00,69.4,67.6,30.09,WNW,288,0.0,2.0,94,0.00,,,0.00,360.0,meteohub,2013-09-04 15:05:00,
2013-09-04 10:10:00,70.2,68.4,30.09,NNW,329,0.0,2.0,94,0.00,,,0.00,394.0,meteohub,2013-09-04 15:10:00,
2013-09-04 10:15:00,70.3,67.8,30.09,NNW,329,0.0,2.0,92,0.00,,,0.00,332.0,meteohub,2013-09-04 15:15:00,
2013-09-04 10:20:00,70.9,68.7,30.09,NNW,329,0.0,2.0,93,0.00,,,0.00,425.0,meteohub,2013-09-04 15:20:00,
2013-09-04 10:26:00,71.4,68.4,30.09,ESE,109,0.0,2.0,90,0.00,,,0.00,432.0,meteohub,2013-09-04 15:26:00,
2013-09-04 10:31:00,71.6,68.5,30.09,ESE,109,0.0,2.0,90,0.00,,,0.00,457.0,meteohub,2013-09-04 15:31:00,
2013-09-04 10:36:00,73.0,70.0,30.09,ESE,109,0.0,2.0,90,0.00,,,0.00,462.0,meteohub,2013-09-04 15:36:00,
2013-09-04 10:41:00,72.7,69.3,30.09,ESE,110,0.0,1.0,89,0.00,,,0.00,434.0,meteohub,2013-09-04 15:41:00,
2013-09-04 10:46:00,73.2,69.4,30.09,West,259,0.0,1.0,88,0.00,,,0.00,485.0,meteohub,2013-09-04 15:46:00,
2013-09-04 10:51:00,73.6,70.7,30.09,West,261,0.0,2.0,91,0.00,,,0.00,499.0,meteohub,2013-09-04 15:51:00,
2013-09-04 10:56:00,74.7,70.5,30.09,West,277,0.0,2.0,87,0.00,,,0.00,513.0,meteohub,2013-09-04 15:56:00,
2013-09-04 11:01:00,75.7,70.9,30.09,NE,53,1.0,1.0,85,0.00,,,0.00,519.0,meteohub,2013-09-04 16:01:00,
2013-09-04 11:06:00,75.4,70.5,30.09,NE,53,0.0,2.0,85,0.00,,,0.00,519.0,meteohub,2013-09-04 16:06:00,
2013-09-04 11:11:00,75.6,70.7,30.09,NE,53,0.0,2.0,85,0.00,,,0.00,533.0,meteohub,2013-09-04 16:11:00,
2013-09-04 11:16:00,75.6,69.6,30.09,NE,46,0.0,2.0,82,0.00,,,0.00,529.0,meteohub,2013-09-04 16:16:00,
2013-09-04 11:21:00,75.7,70.5,30.09,North,350,2.0,2.0,84,0.00,,,0.00,548.0,meteohub,2013-09-04 16:21:00,
2013-09-04 11:26:00,76.3,71.4,30.09,NNE,33,0.0,2.0,85,0.00,,,0.00,559.0,meteohub,2013-09-04 16:26:00,
2013-09-04 11:31:00,76.3,71.4,30.09,NNE,33,0.0,2.0,85,0.00,,,0.00,575.0,meteohub,2013-09-04 16:31:00,
2013-09-04 11:36:00,76.5,70.2,30.09,NNE,33,0.0,2.0,81,0.00,,,0.00,589.0,meteohub,2013-09-04 16:36:00,
2013-09-04 11:41:00,78.1,71.4,30.09,North,0,0.0,1.0,80,0.00,,,0.00,605.0,meteohub,2013-09-04 16:41:00,
2013-09-04 11:46:00,77.9,70.9,30.09,North,355,0.0,2.0,79,0.00,,,0.00,594.0,meteohub,2013-09-04 16:46:00,
2013-09-04 11:51:00,77.5,71.2,30.09,NE,52,0.0,2.0,81,0.00,,,0.00,587.0,meteohub,2013-09-04 16:51:00,
2013-09-04 11:56:00,77.5,71.2,30.09,NE,51,0.0,2.0,81,0.00,,,0.00,624.0,meteohub,2013-09-04 16:56:00,
2013-09-04 12:01:00,78.6,72.3,30.09,NE,51,0.0,2.0,81,0.00,,,0.00,610.0,meteohub,2013-09-04 17:01:00,
2013-09-04 12:06:00,77.4,71.4,30.09,NE,51,0.0,2.0,82,0.00,,,0.00,596.0,meteohub,2013-09-04 17:06:00,
2013-09-04 12:11:00,78.1,71.4,30.09,NE,51,0.0,2.0,80,0.00,,,0.00,612.0,meteohub,2013-09-04 17:11:00,
2013-09-04 12:16:00,78.4,71.1,30.09,ENE,63,0.0,3.0,78,0.00,,,0.00,666.0,meteohub,2013-09-04 17:16:00,
2013-09-04 12:21:00,78.4,72.1,30.09,ENE,63,1.0,3.0,81,0.00,,,0.00,680.0,meteohub,2013-09-04 17:21:00,
2013-09-04 12:26:00,79.3,72.3,30.08,ENE,63,0.0,1.0,79,0.00,,,0.00,700.0,meteohub,2013-09-04 17:26:00,
2013-09-04 12:31:00,80.1,73.0,30.08,North,355,0.0,1.0,79,0.00,,,0.00,715.0,meteohub,2013-09-04 17:31:00,
2013-09-04 12:36:00,79.9,71.2,30.09,NNW,329,0.0,1.0,75,0.00,,,0.00,673.0,meteohub,2013-09-04 17:36:00,
2013-09-04 12:41:00,79.9,71.2,30.09,ESE,108,0.0,2.0,75,0.00,,,0.00,673.0,meteohub,2013-09-04 17:41:00,
2013-09-04 12:46:00,79.3,71.4,30.09,NE,52,1.0,2.0,77,0.00,,,0.00,218.0,meteohub,2013-09-04 17:46:00,
2013-09-04 12:51:00,80.1,72.5,30.09,NE,52,0.0,2.0,78,0.00,,,0.00,694.0,meteohub,2013-09-04 17:51:00,
2013-09-04 12:56:00,80.2,73.9,30.08,ENE,58,0.0,2.0,81,0.00,,,0.00,503.0,meteohub,2013-09-04 17:56:00,
2013-09-04 13:01:00,80.1,73.4,30.08,ENE,58,0.0,1.0,80,0.00,,,0.00,671.0,meteohub,2013-09-04 18:01:00,
2013-09-04 13:06:00,81.1,72.9,30.08,ENE,57,1.0,1.0,76,0.00,,,0.00,422.0,meteohub,2013-09-04 18:06:00,
2013-09-04 13:11:00,81.0,74.7,30.08,East,90,0.0,1.0,81,0.00,,,0.00,763.0,meteohub,2013-09-04 18:11:00,
2013-09-04 13:16:00,80.6,72.7,30.08,SE,136,0.0,1.0,77,0.00,,,0.00,262.0,meteohub,2013-09-04 18:16:00,
2013-09-04 13:21:00,80.2,71.6,30.08,ENE,75,0.0,3.0,75,0.00,,,0.00,466.0,meteohub,2013-09-04 18:21:00,
2013-09-04 13:26:00,80.2,72.3,30.08,ENE,75,0.0,3.0,77,0.00,,,0.00,309.0,meteohub,2013-09-04 18:26:00,
2013-09-04 13:31:00,80.1,71.8,30.07,ENE,69,1.0,3.0,76,0.00,,,0.00,538.0,meteohub,2013-09-04 18:31:00,
2013-09-04 13:36:00,80.8,73.9,30.07,SE,146,0.0,2.0,80,0.00,,,0.00,659.0,meteohub,2013-09-04 18:36:00,
2013-09-04 13:41:00,81.0,72.3,30.07,South,170,0.0,2.0,75,0.00,,,0.00,693.0,meteohub,2013-09-04 18:41:00,
2013-09-04 13:46:00,82.0,73.8,30.07,NNW,336,0.0,2.0,76,0.00,,,0.00,724.0,meteohub,2013-09-04 18:46:00,
2013-09-04 13:52:00,82.6,73.0,30.07,NE,39,0.0,3.0,73,0.00,,,0.00,726.0,meteohub,2013-09-04 18:52:00,
2013-09-04 13:57:00,82.6,75.0,30.07,South,190,0.0,3.0,78,0.00,,,0.00,715.0,meteohub,2013-09-04 18:57:00,
2013-09-04 14:02:00,82.0,72.5,30.08,South,176,0.0,3.0,73,0.00,,,0.00,710.0,meteohub,2013-09-04 19:02:00,
2013-09-04 14:07:00,82.6,72.1,30.07,NNW,347,0.0,3.0,71,0.00,,,0.00,649.0,meteohub,2013-09-04 19:07:00,
2013-09-04 14:12:00,82.2,73.6,30.07,NNE,30,0.0,3.0,75,0.00,,,0.00,649.0,meteohub,2013-09-04 19:12:00,
2013-09-04 14:17:00,82.8,72.9,30.07,NW,306,1.0,5.0,72,0.00,,,0.00,608.0,meteohub,2013-09-04 19:17:00,
2013-09-04 14:22:00,82.6,72.7,30.07,NE,47,0.0,5.0,72,0.00,,,0.00,603.0,meteohub,2013-09-04 19:22:00,
2013-09-04 14:27:00,82.8,73.6,30.07,NNW,345,2.0,3.0,74,0.00,,,0.00,578.0,meteohub,2013-09-04 19:27:00,
2013-09-04 14:32:00,82.0,73.4,30.06,NW,315,0.0,4.0,75,0.00,,,0.00,582.0,meteohub,2013-09-04 19:32:00,
2013-09-04 14:37:00,82.6,72.7,30.07,NE,34,1.0,4.0,72,0.00,,,0.00,478.0,meteohub,2013-09-04 19:37:00,
2013-09-04 14:42:00,81.9,72.7,30.06,NNW,331,0.0,4.0,74,0.00,,,0.00,341.0,meteohub,2013-09-04 19:42:00,
2013-09-04 14:47:00,81.3,73.0,30.06,NNW,331,0.0,3.0,76,0.00,,,0.00,612.0,meteohub,2013-09-04 19:47:00,
2013-09-04 14:52:00,82.0,73.8,30.06,East,98,0.0,3.0,76,0.00,,,0.00,199.0,meteohub,2013-09-04 19:52:00,
2013-09-04 14:57:00,81.1,73.9,30.06,East,99,0.0,1.0,79,0.00,,,0.00,272.0,meteohub,2013-09-04 19:57:00,
2013-09-04 15:02:00,82.0,73.8,30.06,North,5,0.0,3.0,76,0.00,,,0.00,675.0,meteohub,2013-09-04 20:02:00,
2013-09-04 15:07:00,82.9,73.0,30.06,NNW,341,0.0,3.0,72,0.00,,,0.00,633.0,meteohub,2013-09-04 20:07:00,
2013-09-04 15:12:00,83.1,73.6,30.06,NNE,22,0.0,3.0,73,0.00,,,0.00,694.0,meteohub,2013-09-04 20:12:00,
2013-09-04 15:17:00,83.7,74.1,30.06,East,88,0.0,4.0,73,0.00,,,0.00,677.0,meteohub,2013-09-04 20:17:00,
2013-09-04 15:22:00,83.5,74.3,30.06,SSE,152,0.0,4.0,74,0.00,,,0.00,216.0,meteohub,2013-09-04 20:22:00,
2013-09-04 15:27:00,82.0,72.1,30.06,SSE,150,0.0,4.0,72,0.00,,,0.00,327.0,meteohub,2013-09-04 20:27:00,
2013-09-04 15:32:00,82.2,72.3,30.06,NE,41,0.0,3.0,72,0.00,,,0.00,482.0,meteohub,2013-09-04 20:32:00,
2013-09-04 15:37:00,82.9,73.0,30.06,NW,324,0.0,2.0,72,0.00,,,0.00,436.0,meteohub,2013-09-04 20:37:00,
2013-09-04 15:42:00,83.1,73.2,30.06,North,5,0.0,3.0,72,0.00,,,0.00,411.0,meteohub,2013-09-04 20:42:00,
2013-09-04 15:47:00,82.8,74.5,30.06,North,5,0.0,3.0,76,0.00,,,0.00,376.0,meteohub,2013-09-04 20:47:00,
2013-09-04 15:52:00,82.6,72.7,30.06,NW,323,0.0,3.0,72,0.00,,,0.00,357.0,meteohub,2013-09-04 20:52:00,
2013-09-04 15:57:00,82.6,72.1,30.06,West,273,0.0,2.0,71,0.00,,,0.00,320.0,meteohub,2013-09-04 20:57:00,
2013-09-04 16:02:00,82.2,73.0,30.06,NW,319,2.0,2.0,74,0.00,,,0.00,265.0,meteohub,2013-09-04 21:02:00,
2013-09-04 16:07:00,82.0,72.1,30.06,North,0,1.0,3.0,72,0.00,,,0.00,213.0,meteohub,2013-09-04 21:07:00,
2013-09-04 16:12:00,82.2,72.7,30.06,ESE,120,1.0,3.0,73,0.00,,,0.00,199.0,meteohub,2013-09-04 21:12:00,
2013-09-04 16:17:00,82.6,73.8,30.06,East,89,0.0,3.0,75,0.00,,,0.00,192.0,meteohub,2013-09-04 21:17:00,
2013-09-04 16:22:00,82.4,72.9,30.06,NNW,345,0.0,2.0,73,0.00,,,0.00,151.0,meteohub,2013-09-04 21:22:00,
2013-09-04 16:27:00,82.2,73.9,30.06,North,355,1.0,4.0,76,0.00,,,0.00,135.0,meteohub,2013-09-04 21:27:00,
2013-09-04 16:32:00,82.2,72.7,30.06,NW,314,2.0,4.0,73,0.00,,,0.00,118.0,meteohub,2013-09-04 21:32:00,
2013-09-04 16:37:00,82.0,72.1,30.06,NE,49,0.0,4.0,72,0.00,,,0.00,116.0,meteohub,2013-09-04 21:37:00,
2013-09-04 16:42:00,82.0,72.1,30.06,ENE,69,0.0,3.0,72,0.00,,,0.00,186.0,meteohub,2013-09-04 21:42:00,
2013-09-04 16:47:00,81.9,71.6,30.06,NW,324,1.0,3.0,71,0.00,,,0.00,100.0,meteohub,2013-09-04 21:47:00,
2013-09-04 16:52:00,81.9,71.6,30.06,NNW,348,0.0,3.0,71,0.00,,,0.00,142.0,meteohub,2013-09-04 21:52:00,
2013-09-04 16:57:00,81.9,71.1,30.06,NNW,344,1.0,3.0,70,0.00,,,0.00,123.0,meteohub,2013-09-04 21:57:00,
2013-09-04 17:02:00,81.9,72.0,30.06,North,9,0.0,3.0,72,0.00,,,0.00,88.0,meteohub,2013-09-04 22:02:00,
2013-09-04 17:07:00,81.9,71.1,30.05,WNW,292,0.0,3.0,70,0.00,,,0.00,100.0,meteohub,2013-09-04 22:07:00,
2013-09-04 17:12:00,81.9,71.6,30.05,SW,215,0.0,4.0,71,0.00,,,0.00,93.0,meteohub,2013-09-04 22:12:00,
2013-09-04 17:17:00,81.7,72.5,30.05,SW,216,0.0,4.0,74,0.00,,,0.00,125.0,meteohub,2013-09-04 22:17:00,
2013-09-04 17:22:00,81.5,71.6,30.05,NNW,344,1.0,2.0,72,0.00,,,0.00,113.0,meteohub,2013-09-04 22:22:00,
2013-09-04 17:27:00,81.7,70.9,30.05,NW,323,0.0,3.0,70,0.00,,,0.00,118.0,meteohub,2013-09-04 22:27:00,
2013-09-04 17:32:00,81.3,71.8,30.05,NW,323,0.0,3.0,73,0.00,,,0.00,69.0,meteohub,2013-09-04 22:32:00,
2013-09-04 17:37:00,80.4,71.4,30.05,NW,323,0.0,3.0,74,0.00,,,0.00,79.0,meteohub,2013-09-04 22:37:00,
2013-09-04 17:42:00,80.2,71.2,30.05,NW,323,0.0,2.0,74,0.00,,,0.00,69.0,meteohub,2013-09-04 22:42:00,
2013-09-04 17:47:00,79.9,70.9,30.05,NW,323,0.0,1.0,74,0.00,,,0.00,67.0,meteohub,2013-09-04 22:47:00,
2013-09-04 17:52:00,79.3,71.4,30.05,NW,323,0.0,1.0,77,0.00,,,0.00,113.0,meteohub,2013-09-04 22:52:00,
2013-09-04 17:57:00,79.0,72.3,30.05,NW,323,0.0,1.0,80,0.00,,,0.00,93.0,meteohub,2013-09-04 22:57:00,
2013-09-04 18:02:00,79.3,72.3,30.05,NW,323,0.0,0.0,79,0.00,,,0.00,95.0,meteohub,2013-09-04 23:02:00,
2013-09-04 18:07:00,79.3,72.0,30.05,NW,323,0.0,1.0,78,0.00,,,0.00,90.0,meteohub,2013-09-04 23:07:00,
2013-09-04 18:12:00,79.2,72.5,30.05,NW,323,0.0,1.0,80,0.00,,,0.00,93.0,meteohub,2013-09-04 23:12:00,
2013-09-04 18:17:00,78.4,72.1,30.05,NW,323,0.0,1.0,81,0.00,,,0.00,83.0,meteohub,2013-09-04 23:17:00,
2013-09-04 18:22:00,78.4,71.4,30.05,NW,323,0.0,0.0,79,0.00,,,0.00,69.0,meteohub,2013-09-04 23:22:00,
2013-09-04 18:27:00,78.3,72.3,30.05,NW,323,0.0,0.0,82,0.00,,,0.00,63.0,meteohub,2013-09-04 23:27:00,
2013-09-04 18:32:00,77.7,71.8,30.05,NW,323,0.0,0.0,82,0.00,,,0.00,62.0,meteohub,2013-09-04 23:32:00,
2013-09-04 18:37:00,77.5,71.6,30.05,NW,323,0.0,0.0,82,0.00,,,0.00,54.0,meteohub,2013-09-04 23:37:00,
2013-09-04 18:42:00,77.4,71.4,30.05,NW,323,0.0,0.0,82,0.00,,,0.00,47.0,meteohub,2013-09-04 23:42:00,
2013-09-04 18:47:00,77.2,71.6,30.05,NW,323,0.0,0.0,83,0.00,,,0.00,39.0,meteohub,2013-09-04 23:47:00,
2013-09-04 18:52:00,77.0,71.4,30.05,NW,323,0.0,0.0,83,0.00,,,0.00,33.0,meteohub,2013-09-04 23:52:00,
2013-09-04 18:57:00,76.8,71.2,30.05,NW,323,0.0,0.0,83,0.00,,,0.00,37.0,meteohub,2013-09-04 23:57:00,
2013-09-04 19:02:00,76.6,71.1,30.05,NW,323,0.0,0.0,83,0.00,,,0.00,40.0,meteohub,2013-09-05 00:02:00,
2013-09-04 19:07:00,76.5,71.2,30.05,NW,323,0.0,0.0,84,0.00,,,0.00,35.0,meteohub,2013-09-05 00:07:00,
2013-09-04 19:12:00,76.5,70.9,30.05,NW,323,0.0,0.0,83,0.00,,,0.00,26.0,meteohub,2013-09-05 00:12:00,
2013-09-04 19:17:00,76.5,70.9,30.05,NW,323,0.0,0.0,83,0.00,,,0.00,19.0,meteohub,2013-09-05 00:17:00,
2013-09-04 19:22:00,76.3,71.1,30.05,NW,323,0.0,0.0,84,0.00,,,0.00,14.0,meteohub,2013-09-05 00:22:00,
2013-09-04 19:27:00,75.9,70.7,30.05,NW,323,0.0,0.0,84,0.00,,,0.00,14.0,meteohub,2013-09-05 00:27:00,
2013-09-04 19:32:00,75.7,70.5,30.05,NW,323,0.0,0.0,84,0.00,,,0.00,14.0,meteohub,2013-09-05 00:32:00,
2013-09-04 19:37:00,75.6,70.7,30.05,NW,323,0.0,0.0,85,0.00,,,0.00,11.0,meteohub,2013-09-05 00:37:00,
2013-09-04 19:42:00,75.6,70.7,30.05,NW,323,0.0,0.0,85,0.00,,,0.00,9.0,meteohub,2013-09-05 00:42:00,
2013-09-04 19:47:00,75.2,70.7,30.06,NW,323,0.0,0.0,86,0.00,,,0.00,7.0,meteohub,2013-09-05 00:47:00,
2013-09-04 19:52:00,74.8,70.3,30.05,NW,323,0.0,0.0,86,0.00,,,0.00,5.0,meteohub,2013-09-05 00:52:00,
2013-09-04 19:57:00,74.8,70.3,30.06,NW,323,0.0,0.0,86,0.00,,,0.00,5.0,meteohub,2013-09-05 00:57:00,
2013-09-04 20:02:00,74.5,70.0,30.06,NW,323,0.0,0.0,86,0.00,,,0.00,0.0,meteohub,2013-09-05 01:02:00,
2013-09-04 20:07:00,74.3,70.2,30.06,NW,323,0.0,0.0,87,0.00,,,0.00,0.0,meteohub,2013-09-05 01:07:00,
2013-09-04 20:12:00,73.9,69.8,30.06,NW,323,0.0,0.0,87,0.00,,,0.00,0.0,meteohub,2013-09-05 01:12:00,
2013-09-04 20:17:00,73.9,69.8,30.06,NW,323,0.0,0.0,87,0.00,,,0.00,0.0,meteohub,2013-09-05 01:17:00,
2013-09-04 20:22:00,73.8,69.3,30.06,NW,323,0.0,0.0,86,0.00,,,0.00,0.0,meteohub,2013-09-05 01:22:00,
2013-09-04 20:27:00,73.6,69.1,30.06,NW,323,0.0,0.0,86,0.00,,,0.00,0.0,meteohub,2013-09-05 01:27:00,
2013-09-04 20:32:00,73.4,69.3,30.06,NW,323,0.0,0.0,87,0.00,,,0.00,0.0,meteohub,2013-09-05 01:32:00,
2013-09-04 20:37:00,73.2,69.1,30.06,NW,323,0.0,0.0,87,0.00,,,0.00,0.0,meteohub,2013-09-05 01:37:00,
2013-09-04 20:42:00,73.0,68.9,30.06,NW,323,0.0,0.0,87,0.00,,,0.00,0.0,meteohub,2013-09-05 01:42:00,
2013-09-04 20:47:00,72.9,68.7,30.06,NW,323,0.0,0.0,87,0.00,,,0.00,0.0,meteohub,2013-09-05 01:47:00,
2013-09-04 20:52:00,72.9,69.1,30.06,NW,323,0.0,0.0,88,0.00,,,0.00,0.0,meteohub,2013-09-05 01:52:00,
2013-09-04 20:57:00,72.3,68.9,30.07,NW,323,0.0,0.0,89,0.00,,,0.00,0.0,meteohub,2013-09-05 01:57:00,
2013-09-04 21:02:00,72.3,68.9,30.07,NW,323,0.0,0.0,89,0.00,,,0.00,0.0,meteohub,2013-09-05 02:02:00,
2013-09-04 21:07:00,72.1,68.7,30.07,NW,323,0.0,0.0,89,0.00,,,0.00,0.0,meteohub,2013-09-05 02:07:00,
2013-09-04 21:12:00,72.0,68.5,30.07,NW,323,0.0,0.0,89,0.00,,,0.00,0.0,meteohub,2013-09-05 02:12:00,
2013-09-04 21:17:00,71.8,68.4,30.07,NW,323,0.0,0.0,89,0.00,,,0.00,0.0,meteohub,2013-09-05 02:17:00,
2013-09-04 21:22:00,71.8,68.4,30.07,NW,323,0.0,0.0,89,0.00,,,0.00,0.0,meteohub,2013-09-05 02:22:00,
2013-09-04 21:27:00,71.8,68.4,30.08,NW,323,0.0,0.0,89,0.00,,,0.00,0.0,meteohub,2013-09-05 02:27:00,
2013-09-04 21:32:00,71.4,68.0,30.08,NW,323,0.0,0.0,89,0.00,,,0.00,0.0,meteohub,2013-09-05 02:32:00,
2013-09-04 21:37:00,71.4,68.4,30.08,NW,323,0.0,0.0,90,0.00,,,0.00,0.0,meteohub,2013-09-05 02:37:00,
2013-09-04 21:42:00,71.2,68.2,30.08,NW,323,0.0,0.0,90,0.00,,,0.00,0.0,meteohub,2013-09-05 02:42:00,
2013-09-04 21:47:00,71.2,68.2,30.08,NW,323,0.0,0.0,90,0.00,,,0.00,0.0,meteohub,2013-09-05 02:47:00,
2013-09-04 21:52:00,71.1,68.0,30.08,NW,323,0.0,0.0,90,0.00,,,0.00,0.0,meteohub,2013-09-05 02:52:00,
2013-09-04 21:57:00,70.9,67.8,30.08,NW,323,0.0,0.0,90,0.00,,,0.00,0.0,meteohub,2013-09-05 02:57:00,
2013-09-04 22:02:00,70.7,67.6,30.09,NW,323,0.0,0.0,90,0.00,,,0.00,0.0,meteohub,2013-09-05 03:02:00,
2013-09-04 22:07:00,70.5,67.8,30.09,NW,323,0.0,0.0,91,0.00,,,0.00,0.0,meteohub,2013-09-05 03:07:00,
2013-09-04 22:12:00,70.3,67.6,30.09,NW,323,0.0,0.0,91,0.00,,,0.00,0.0,meteohub,2013-09-05 03:12:00,
2013-09-04 22:17:00,70.2,67.5,30.09,NW,323,0.0,0.0,91,0.00,,,0.00,0.0,meteohub,2013-09-05 03:17:00,
2013-09-04 22:22:00,70.2,67.5,30.09,NW,323,0.0,0.0,91,0.00,,,0.00,0.0,meteohub,2013-09-05 03:22:00,
2013-09-04 22:27:00,70.0,67.3,30.09,NW,323,0.0,0.0,91,0.00,,,0.00,0.0,meteohub,2013-09-05 03:27:00,
2013-09-04 22:32:00,69.8,67.1,30.09,NW,323,0.0,0.0,91,0.00,,,0.00,0.0,meteohub,2013-09-05 03:32:00,
2013-09-04 22:37:00,69.6,67.3,30.10,NW,323,0.0,0.0,92,0.00,,,0.00,0.0,meteohub,2013-09-05 03:37:00,
2013-09-04 22:42:00,69.4,67.1,30.10,NW,323,0.0,0.0,92,0.00,,,0.00,0.0,meteohub,2013-09-05 03:42:00,
2013-09-04 22:47:00,69.4,67.1,30.10,NW,323,0.0,0.0,92,0.00,,,0.00,0.0,meteohub,2013-09-05 03:47:00,
2013-09-04 22:52:00,69.3,66.9,30.10,NW,323,0.0,0.0,92,0.00,,,0.00,0.0,meteohub,2013-09-05 03:52:00,
2013-09-04 22:57:00,69.1,66.7,30.10,NW,323,0.0,0.0,92,0.00,,,0.00,0.0,meteohub,2013-09-05 03:57:00,
2013-09-04 23:01:00,69.1,66.7,30.10,NW,323,0.0,0.0,92,0.00,,,0.00,0.0,meteohub,2013-09-05 04:01:00,
2013-09-04 23:03:00,69.1,66.9,30.10,NW,323,0.0,0.0,93,0.00,,,0.00,0.0,meteohub,2013-09-05 04:03:00,
2013-09-04 23:08:00,68.9,66.7,30.10,NW,323,0.0,0.0,93,0.00,,,0.00,0.0,meteohub,2013-09-05 04:08:00,
2013-09-04 23:13:00,68.7,66.6,30.10,NW,323,0.0,0.0,93,0.00,,,0.00,0.0,meteohub,2013-09-05 04:13:00,
2013-09-04 23:18:00,68.7,66.6,30.11,NW,323,0.0,0.0,93,0.00,,,0.00,0.0,meteohub,2013-09-05 04:18:00,
2013-09-04 23:23:00,68.5,66.4,30.11,NW,323,0.0,0.0,93,0.00,,,0.00,0.0,meteohub,2013-09-05 04:23:00,
2013-09-04 23:28:00,68.5,66.4,30.11,NW,323,0.0,0.0,93,0.00,,,0.00,0.0,meteohub,2013-09-05 04:28:00,
2013-09-04 23:33:00,68.5,66.4,30.11,NNE,31,0.0,0.0,93,0.00,,,0.00,0.0,meteohub,2013-09-05 04:33:00,
2013-09-04 23:38:00,68.7,66.4,30.11,ESE,103,0.0,1.0,92,0.00,,,0.00,0.0,meteohub,2013-09-05 04:38:00,
2013-09-04 23:43:00,68.7,66.0,30.11,NE,43,0.0,2.0,91,0.00,,,0.00,0.0,meteohub,2013-09-05 04:43:00,
2013-09-04 23:48:00,68.7,66.0,30.11,SSW,198,0.0,2.0,91,0.00,,,0.00,0.0,meteohub,2013-09-05 04:48:00,
2013-09-04 23:53:00,68.7,66.0,30.11,WNW,292,0.0,1.0,91,0.00,,,0.00,0.0,meteohub,2013-09-05 04:53:00,
2013-09-04 23:58:00,68.5,65.8,30.11,WNW,292,0.0,1.0,91,0.00,,,0.00,0.0,meteohub,2013-09-05 04:58:00,